createdAt,value
2019-03-15T00:00:52.089Z,68.20
2019-03-15T00:15:51.243Z,68.44
2019-03-15T00:30:51.211Z,68.81
2019-03-15T00:45:51.184Z,69.86
2019-03-15T01:00:51.215Z,70.00
2019-03-15T01:15:51.493Z,69.86
2019-03-15T01:30:51.444Z,69.11
2019-03-15T01:45:53.484Z,68.48
2019-03-15T02:00:51.345Z,67.74
2019-03-15T02:15:51.668Z,67.18
2019-03-15T02:30:51.665Z,68.61
2019-03-15T02:45:51.553Z,68.57
2019-03-15T03:00:51.557Z,68.26
2019-03-15T03:15:51.909Z,68.46
2019-03-15T03:30:55.777Z,68.92
2019-03-15T03:45:51.921Z,69.59
2019-03-15T04:00:53.858Z,69.70
2019-03-15T04:15:51.320Z,69.86
2019-03-15T04:30:51.096Z,69.77
2019-03-15T04:45:52.983Z,69.81
2019-03-15T05:00:50.817Z,70.87
2019-03-15T05:15:51.186Z,71.57
2019-03-15T05:30:51.278Z,69.29
2019-03-15T05:45:51.073Z,65.51
2019-03-15T06:00:50.991Z,59.29
2019-03-15T06:15:51.393Z,53.29
2019-03-15T06:30:51.418Z,49.10
2019-03-15T06:45:51.272Z,49.27
2019-03-15T07:00:54.357Z,49.62
2019-03-15T07:15:51.729Z,51.30
2019-03-15T07:30:51.599Z,51.33
2019-03-15T07:45:51.680Z,48.93
2019-03-15T08:00:51.337Z,47.21
2019-03-15T08:15:50.841Z,44.46
2019-03-15T08:30:51.663Z,40.21
2019-03-15T08:45:51.692Z,37.24
2019-03-15T09:00:51.657Z,35.35
2019-03-15T09:15:51.335Z,35.95
2019-03-15T10:30:50.587Z,29.85
2019-03-15T10:45:51.078Z,28.38
2019-03-15T11:00:51.680Z,28.11
2019-03-15T11:15:51.716Z,26.99
2019-03-15T11:30:51.288Z,27.13
2019-03-15T12:45:51.424Z,28.17
2019-03-15T13:00:51.511Z,28.94
2019-03-15T13:15:50.713Z,29.10
2019-03-15T13:30:51.237Z,29.46
2019-03-15T13:45:51.605Z,29.27
2019-03-15T14:00:51.312Z,30.11
2019-03-15T14:15:52.897Z,31.26
2019-03-15T14:30:51.407Z,30.94
2019-03-15T14:45:51.122Z,32.62
2019-03-15T15:00:50.752Z,35.19
2019-03-15T15:15:51.100Z,36.59
2019-03-15T15:30:51.203Z,36.95
2019-03-15T15:45:52.975Z,37.24
2019-03-15T16:00:50.713Z,38.46
2019-03-15T16:15:51.843Z,39.43
2019-03-15T16:45:52.878Z,41.71
2019-03-15T17:15:57.784Z,43.90
2019-03-15T17:31:09.208Z,47.88
2019-03-15T18:00:58.301Z,47.67
2019-03-15T19:30:51.487Z,50.76
2019-03-15T19:45:56.650Z,51.19
2019-03-15T20:15:51.467Z,51.72
2019-03-15T22:45:55.015Z,53.28
2019-03-15T23:00:54.041Z,52.65
